Quick Links (Output Below):   Max & Min Temps   /   Climate Reports   /   Zone Forecasts
River Forecasts   /   Forestry Forecasts   /   Aviation Forecasts   /   Radars   /   Features

Terminal Aerodrome Forecast (Fort Smith)

Pick a Site:
Arkadelphia | El Dorado | Fayetteville | Fort Smith | Harrison | Highfill | Hot Springs | Jonesboro
Little Rock | Monticello | Mountain Home | Pine Bluff | Texarkana

KFSM 270811Z 2708/2806 11007KT 6SM -RA BR OVC025
      TEMPO 2709/2713 3SM RA BR OVC015
     FM271300 14010KT 3SM -RA BR OVC012
     FM271500 30012KT 2SM -RA BR OVC007
      TEMPO 2715/2718 1SM RA OVC004
     FM271800 31013KT 2SM -RA BR OVC004
      TEMPO 2718/2721 1SM RA OVC004
     FM272100 35010KT 2SM -RA BR OVC004=

 Latest METARs (Observations) 
How to Decode METARs
09Z KFSM 270853Z AUTO 14005KT 10SM OVC030 18/16 A3011 RMK AO2 RAE46
         SLP193 P0002 60010 T01830161 58008
08Z KFSM 270753Z AUTO 11004KT 9SM -RA SCT024 BKN046 OVC080 18/17 A3013
         RMK AO2 SLP198 P0003 T01830167
07Z KFSM 270653Z AUTO VRB03KT 10SM -RA SCT019 BKN028 OVC085 19/17
         A3013 RMK AO2 SLP199 P0005 T01890167
06Z KFSM 270553Z AUTO 14004KT 10SM -RA FEW033 BKN075 OVC110 18/17
         A3014 RMK AO2 SLP204 P0013 60034 T01830167 10200 20183
         402220133 50002
05Z KFSM 270453Z AUTO 15004KT 5SM RA BR SCT022 BKN034 OVC055 18/16
         A3016 RMK AO2 SLP212 P0008 T01830161
04Z KFSM 270353Z AUTO VRB04KT 7SM -RA FEW019 BKN065 OVC080 18/16 A3016
         RMK AO2 SLP210 P0002 T01830161 TSNO
03Z KFSM 270253Z AUTO 13008KT 8SM -RA BKN110 18/16 A3014 RMK AO2
         SLP202 P0005 60011 T01830161 58008 TSNO
02Z KFSM 270153Z AUTO 12009KT 7SM -RA FEW049 BKN095 OVC110 18/16 A3016
         RMK AO2 RAB0054 SLP208 P0006 T01830161 TSNO
01Z KFSM 270053Z AUTO 12007KT 10SM BKN036 OVC075 19/16 A3017 RMK AO2
         SLP212 T01940156 TSNO
00Z KFSM 262353Z AUTO 09004KT 10SM OVC032 19/16 A3016 RMK AO2 RAB40E52
         SLP211 P0000 60000 T01890156 10217 20189 50008 TSNO
***** Today's Observations (Above) *****

Back to Main Page

USA.gov is the U.S. government's official web portal to all federal, state and local government web resources and services.